Time;durP1;ratioP1;P1;durP2;ratioP2;P2;SDS_P1;SDS_P2;PMS_P1;PMS_P2;Temp;Humidity;BMP_temperature;BMP_pressure;BME280_temperature;BME280_humidity;BME280_pressure;Samples;Min_cycle;Max_cycle;Signal;HPM_P1;HPM_P2
2022/03/04 00:00:50;;;;;;;7.13;1.10;;;25.40;99.90;;;;;;6156098;23;20005;-75
2022/03/04 00:03:19;;;;;;;5.05;1.20;;;25.20;99.90;;;;;;6129808;23;20029;-75
2022/03/04 00:05:46;;;;;;;8.15;1.80;;;25.20;99.90;;;;;;6129638;23;20014;-75
2022/03/04 00:08:13;;;;;;;5.80;1.10;;;25.40;99.90;;;;;;6156150;23;20084;-75
2022/03/04 00:10:41;;;;;;;5.55;1.38;;;25.90;99.90;;;;;;6155852;23;20334;-75
2022/03/04 00:13:08;;;;;;;4.63;0.98;;;26.10;99.90;;;;;;6156114;23;20330;-75
2022/03/04 00:15:35;;;;;;;5.80;1.20;;;26.30;99.90;;;;;;6155945;23;20001;-75
2022/03/04 00:18:03;;;;;;;9.65;1.25;;;26.20;99.90;;;;;;6156141;23;20001;-75
2022/03/04 00:20:31;;;;;;;6.60;1.30;;;26.20;99.90;;;;;;6129712;23;20009;-75
2022/03/04 00:22:58;;;;;;;7.85;1.10;;;26.60;99.90;;;;;;6156102;23;20046;-76
2022/03/04 00:25:26;;;;;;;7.72;1.75;;;26.80;99.90;;;;;;6129596;23;20010;-76
2022/03/04 00:27:53;;;;;;;8.20;1.83;;;27.00;99.90;;;;;;6155913;23;20006;-77
2022/03/04 00:30:21;;;;;;;4.68;1.05;;;27.00;99.90;;;;;;6129373;23;20016;-77
2022/03/04 00:32:48;;;;;;;4.07;0.80;;;26.20;99.90;;;;;;6129557;23;20009;-76
2022/03/04 00:35:15;;;;;;;4.03;0.70;;;25.60;99.90;;;;;;6156003;23;20423;-75
2022/03/04 00:37:42;;;;;;;5.47;0.80;;;25.50;99.90;;;;;;6155835;23;20001;-75
2022/03/04 00:40:11;;;;;;;6.15;1.48;;;25.90;99.90;;;;;;6155744;23;20009;-75
2022/03/04 00:42:38;;;;;;;6.25;1.45;;;26.20;99.90;;;;;;6155733;23;20490;-75
2022/03/04 00:45:06;;;;;;;4.25;1.17;;;26.50;99.90;;;;;;6155375;23;20033;-74
2022/03/04 00:47:33;;;;;;;6.88;1.55;;;26.80;99.90;;;;;;6129469;23;20012;-76
2022/03/04 00:50:01;;;;;;;4.93;1.20;;;26.50;99.90;;;;;;6155675;23;20005;-75
2022/03/04 00:52:30;;;;;;;7.07;1.15;;;25.90;99.90;;;;;;6129446;23;20002;-76
2022/03/04 00:55:01;;;;;;;8.00;2.15;;;25.70;99.90;;;;;;6155434;23;20339;-76
2022/03/04 00:57:28;;;;;;;6.28;2.05;;;25.80;99.90;;;;;;6155738;23;20028;-76
2022/03/04 00:59:56;;;;;;;6.95;1.60;;;25.80;99.90;;;;;;6129296;23;20009;-76
2022/03/04 01:02:23;;;;;;;6.60;1.58;;;26.10;99.90;;;;;;6129255;23;20016;-75
2022/03/04 01:04:51;;;;;;;7.28;1.60;;;26.00;99.90;;;;;;6129015;23;20072;-75
2022/03/04 01:07:18;;;;;;;11.75;2.22;;;25.80;99.90;;;;;;6129239;23;20014;-74
2022/03/04 01:09:45;;;;;;;10.35;2.42;;;25.50;99.90;;;;;;6129206;23;20018;-75
2022/03/04 01:12:13;;;;;;;8.90;2.15;;;25.60;99.90;;;;;;6155386;23;20001;-75
2022/03/04 01:14:40;;;;;;;8.05;1.80;;;26.30;99.90;;;;;;6129182;23;20006;-74
2022/03/04 01:17:08;;;;;;;8.40;1.60;;;26.50;99.90;;;;;;6129171;23;20002;-74
2022/03/04 01:19:35;;;;;;;9.90;2.22;;;26.50;99.90;;;;;;6129161;23;20096;-74
2022/03/04 01:22:03;;;;;;;6.32;1.52;;;26.70;99.90;;;;;;6155276;23;20096;-75
2022/03/04 01:24:30;;;;;;;5.63;1.15;;;27.00;99.90;;;;;;6155450;23;20005;-75
2022/03/04 01:26:57;;;;;;;5.10;1.42;;;27.10;99.90;;;;;;6155311;23;20001;-75
2022/03/04 01:29:25;;;;;;;4.93;1.30;;;27.20;99.90;;;;;;6155304;23;20347;-75
2022/03/04 01:31:52;;;;;;;4.18;1.00;;;27.40;99.90;;;;;;6129039;23;20029;-75
2022/03/04 01:34:19;;;;;;;5.20;1.25;;;27.40;99.90;;;;;;6129246;23;20475;-75
2022/03/04 01:36:47;;;;;;;8.68;1.25;;;27.30;99.90;;;;;;6155354;23;20008;-74
2022/03/04 01:39:14;;;;;;;6.95;1.30;;;27.10;99.90;;;;;;6155372;23;19997;-75
2022/03/04 01:41:41;;;;;;;5.78;1.30;;;27.20;99.90;;;;;;6156361;23;20418;-74
2022/03/04 01:44:09;;;;;;;3.65;1.00;;;27.30;99.90;;;;;;6157579;23;20334;-74
2022/03/04 01:46:38;;;;;;;5.78;1.48;;;27.00;99.90;;;;;;6157589;23;20435;-79
2022/03/04 01:49:05;;;;;;;5.85;1.45;;;26.70;99.90;;;;;;6157371;23;20077;-76
2022/03/04 01:51:32;;;;;;;6.82;1.45;;;26.50;99.90;;;;;;6131089;23;20008;-76
2022/03/04 01:54:00;;;;;;;4.53;0.90;;;26.40;99.90;;;;;;6157264;23;20025;-76
2022/03/04 01:56:27;;;;;;;3.80;1.02;;;26.40;99.90;;;;;;6131142;23;20013;-75
2022/03/04 01:58:54;;;;;;;3.63;0.65;;;26.60;99.90;;;;;;6157221;23;20004;-77
2022/03/04 02:01:22;;;;;;;5.05;1.17;;;26.70;99.90;;;;;;6131037;23;20307;-76
2022/03/04 02:03:50;;;;;;;5.70;1.10;;;26.50;99.90;;;;;;6131162;23;20057;-76
2022/03/04 02:06:17;;;;;;;4.30;0.98;;;26.20;99.90;;;;;;6157146;23;20312;-76
2022/03/04 02:08:45;;;;;;;4.88;1.15;;;25.90;99.90;;;;;;6130925;23;20009;-75
2022/03/04 02:11:12;;;;;;;5.57;1.10;;;25.70;99.90;;;;;;6130953;23;20016;-75
2022/03/04 02:13:40;;;;;;;5.65;1.20;;;25.60;99.90;;;;;;6157072;23;20427;-76
2022/03/04 02:16:25;;;;;;;3.13;1.00;;;25.80;99.90;;;;;;6131092;23;20001;-74
2022/03/04 02:18:53;;;;;;;5.38;0.98;;;25.90;99.90;;;;;;6132244;23;20086;-76
2022/03/04 02:21:23;;;;;;;6.82;1.00;;;26.30;99.90;;;;;;6130969;23;20088;-75
2022/03/04 02:23:53;;;;;;;6.97;1.30;;;26.70;99.90;;;;;;6107390;23;20399;-75
2022/03/04 02:26:21;;;;;;;6.75;1.42;;;27.10;99.90;;;;;;6131991;23;20021;-75
2022/03/04 02:28:49;;;;;;;5.13;1.10;;;27.20;99.90;;;;;;6157659;23;20002;-76
2022/03/04 02:31:18;;;;;;;5.15;0.80;;;26.80;99.90;;;;;;6130708;23;20057;-75
2022/03/04 02:33:47;;;;;;;2.78;0.70;;;26.60;99.90;;;;;;6157069;23;20004;-74
2022/03/04 02:36:14;;;;;;;4.70;1.05;;;26.70;99.90;;;;;;6156941;23;19998;-75
2022/03/04 02:38:42;;;;;;;4.85;1.27;;;26.70;99.90;;;;;;6130527;23;20337;-73
2022/03/04 02:41:09;;;;;;;3.47;0.98;;;26.60;99.90;;;;;;6156858;23;20012;-75
2022/03/04 02:43:37;;;;;;;4.95;1.05;;;26.90;99.90;;;;;;6156747;23;20002;-76
2022/03/04 02:46:04;;;;;;;7.15;1.52;;;27.60;99.90;;;;;;6130529;23;20019;-75
2022/03/04 02:48:32;;;;;;;5.57;1.38;;;27.70;99.90;;;;;;6130261;23;20006;-74
2022/03/04 02:50:59;;;;;;;7.38;1.50;;;27.40;99.90;;;;;;6130536;23;20145;-75
2022/03/04 02:53:26;;;;;;;7.78;1.90;;;27.30;99.90;;;;;;6156479;23;20435;-75
2022/03/04 02:55:54;;;;;;;5.95;1.60;;;27.20;99.90;;;;;;6130411;23;20002;-77
2022/03/04 02:58:21;;;;;;;5.15;1.35;;;27.20;99.90;;;;;;6156805;23;20449;-76
2022/03/04 03:00:50;;;;;;;5.53;1.02;;;27.40;99.90;;;;;;6130395;23;20009;-75
2022/03/04 03:03:17;;;;;;;5.82;1.13;;;27.70;99.90;;;;;;6156544;23;20009;-74
2022/03/04 03:05:44;;;;;;;3.60;1.40;;;27.80;99.90;;;;;;6156435;23;20013;-75
2022/03/04 03:08:12;;;;;;;5.82;1.25;;;27.50;99.90;;;;;;6130526;23;20334;-74
2022/03/04 03:10:40;;;;;;;5.00;1.10;;;27.60;99.90;;;;;;6156408;23;20037;-74
2022/03/04 03:13:07;;;;;;;3.92;0.88;;;27.80;99.90;;;;;;6156628;23;20025;-75
2022/03/04 03:15:35;;;;;;;5.25;1.20;;;28.00;99.90;;;;;;6105959;23;20005;-76
2022/03/04 03:18:02;;;;;;;5.25;0.88;;;27.80;99.90;;;;;;6156531;23;20002;-75
2022/03/04 03:20:30;;;;;;;3.13;0.75;;;28.10;99.90;;;;;;6130171;23;20014;-74
2022/03/04 03:22:57;;;;;;;4.05;0.88;;;28.00;99.90;;;;;;6156790;23;20008;-75
2022/03/04 03:25:26;;;;;;;3.13;0.80;;;28.40;99.90;;;;;;6130212;23;20043;-76
2022/03/04 03:27:53;;;;;;;3.17;0.90;;;28.50;99.90;;;;;;6156682;23;20001;-75
2022/03/04 03:30:21;;;;;;;3.90;0.80;;;28.40;99.90;;;;;;6130073;23;20006;-74
2022/03/04 03:32:48;;;;;;;5.40;0.88;;;28.30;99.90;;;;;;6129749;23;20032;-74
2022/03/04 03:35:16;;;;;;;4.05;0.73;;;28.30;99.90;;;;;;6130172;23;20002;-75
2022/03/04 03:37:43;;;;;;;3.95;0.70;;;28.30;99.90;;;;;;6156518;23;20053;-74
2022/03/04 03:40:12;;;;;;;4.43;0.77;;;27.60;99.90;;;;;;6156352;23;20081;-74
2022/03/04 03:42:40;;;;;;;5.68;1.23;;;27.10;99.90;;;;;;6156382;23;20434;-75
2022/03/04 03:45:10;;;;;;;5.72;1.30;;;26.40;99.90;;;;;;6156290;23;20449;-75
2022/03/04 03:47:38;;;;;;;;;;;26.20;99.90;;;;;;6156673;23;20084;-75
2022/03/04 03:50:09;;;;;;;6.32;1.05;;;26.00;99.90;;;;;;6129809;23;19904;-75
2022/03/04 03:52:37;;;;;;;3.78;1.02;;;26.00;99.90;;;;;;6156362;23;20474;-76
2022/03/04 03:55:11;;;;;;;6.65;1.20;;;26.30;99.90;;;;;;6129911;23;20059;-76
2022/03/04 03:57:38;;;;;;;4.75;1.20;;;26.80;99.90;;;;;;6130087;23;20006;-75
2022/03/04 04:00:07;;;;;;;5.32;1.25;;;26.60;99.90;;;;;;6129895;23;20156;-75
2022/03/04 04:02:34;;;;;;;6.38;1.15;;;26.30;99.90;;;;;;6156145;23;20038;-76
2022/03/04 04:05:01;;;;;;;6.68;1.48;;;26.50;99.90;;;;;;6155456;23;20049;-75
2022/03/04 04:07:29;;;;;;;6.90;1.33;;;27.00;99.90;;;;;;6156001;23;20005;-76
2022/03/04 04:09:56;;;;;;;7.57;1.63;;;27.20;99.90;;;;;;6129789;23;20417;-75
2022/03/04 04:12:23;;;;;;;5.10;1.20;;;27.30;99.90;;;;;;6129695;23;20308;-76
2022/03/04 04:14:50;;;;;;;5.07;1.05;;;27.60;99.90;;;;;;6129738;23;20457;-76
2022/03/04 04:17:18;;;;;;;7.28;1.05;;;27.90;99.90;;;;;;6155020;23;20005;-76
2022/03/04 04:19:45;;;;;;;6.10;1.05;;;28.10;99.90;;;;;;6155927;23;20001;-76
2022/03/04 04:22:12;;;;;;;5.35;0.80;;;28.30;99.90;;;;;;6129546;23;20005;-74
2022/03/04 04:24:40;;;;;;;4.68;0.90;;;28.50;99.90;;;;;;6129738;23;20108;-74
2022/03/04 04:27:07;;;;;;;4.72;1.17;;;28.20;99.90;;;;;;6129587;23;20027;-74
2022/03/04 04:29:34;;;;;;;5.35;1.10;;;27.60;99.90;;;;;;6155892;23;20001;-74
2022/03/04 04:32:02;;;;;;;3.85;0.80;;;26.80;99.90;;;;;;6155988;23;20025;-75
2022/03/04 04:34:29;;;;;;;3.38;1.13;;;26.30;99.90;;;;;;6155846;23;20060;-75
2022/03/04 04:36:56;;;;;;;7.03;1.25;;;26.20;99.90;;;;;;6155814;23;20005;-75
2022/03/04 04:39:23;;;;;;;6.65;1.33;;;26.30;99.90;;;;;;6155847;23;19997;-75
2022/03/04 04:41:51;;;;;;;7.65;1.70;;;26.90;99.90;;;;;;6155755;23;20144;-80
2022/03/04 04:44:18;;;;;;;6.75;1.13;;;27.20;99.90;;;;;;6155768;23;20001;-76
2022/03/04 04:46:45;;;;;;;4.43;0.90;;;27.20;99.90;;;;;;6129354;23;20063;-77
2022/03/04 04:49:13;;;;;;;5.15;0.98;;;27.00;99.90;;;;;;6129414;23;20339;-76
2022/03/04 04:51:40;;;;;;;2.90;0.70;;;26.90;99.90;;;;;;6155611;23;20005;-74
2022/03/04 04:54:07;;;;;;;3.05;0.93;;;27.10;99.90;;;;;;6129385;23;20002;-75
2022/03/04 04:56:36;;;;;;;4.47;0.77;;;27.30;99.90;;;;;;6129331;23;20431;-76
2022/03/04 04:59:03;;;;;;;3.65;0.70;;;27.60;99.90;;;;;;6129155;23;20502;-76
2022/03/04 05:01:31;;;;;;;4.20;1.00;;;27.90;99.90;;;;;;6129289;23;20009;-76
2022/03/04 05:03:58;;;;;;;3.85;1.05;;;27.70;99.90;;;;;;6122361;23;20109;-77
2022/03/04 05:06:26;;;;;;;7.55;1.38;;;27.50;99.90;;;;;;6126085;23;20006;-77
2022/03/04 05:08:54;;;;;;;4.75;0.88;;;27.40;99.90;;;;;;6125958;23;20001;-78
2022/03/04 05:11:21;;;;;;;5.38;0.98;;;27.60;99.90;;;;;;6100375;23;20017;-78
2022/03/04 05:13:48;;;;;;;5.95;1.38;;;27.50;99.90;;;;;;6126001;23;20002;-76
2022/03/04 05:16:16;;;;;;;4.75;1.10;;;26.80;99.90;;;;;;6099984;23;20061;-75
2022/03/04 05:18:43;;;;;;;5.50;1.20;;;26.20;99.90;;;;;;6125988;23;19998;-76
2022/03/04 05:21:11;;;;;;;4.68;1.00;;;25.80;99.90;;;;;;6099964;23;20431;-77
2022/03/04 05:26:23;;;;;;;4.82;1.10;;;25.30;99.90;;;;;;6126108;23;20017;-80
2022/03/04 05:28:51;;;;;;;6.50;1.08;;;25.30;99.90;;;;;;6099872;23;20010;-75
2022/03/04 05:31:19;;;;;;;5.30;1.25;;;25.40;99.90;;;;;;6125968;23;20002;-75
2022/03/04 05:33:46;;;;;;;9.73;1.70;;;25.80;99.90;;;;;;6125991;23;20045;-76
2022/03/04 05:36:14;;;;;;;6.22;1.23;;;26.40;99.90;;;;;;6099995;23;20395;-75
2022/03/04 05:38:42;;;;;;;6.43;1.23;;;26.70;99.90;;;;;;6125766;23;20002;-75
2022/03/04 05:41:09;;;;;;;4.63;1.45;;;26.60;99.90;;;;;;6099813;23;20013;-75
2022/03/04 05:43:37;;;;;;;8.30;1.45;;;26.40;99.90;;;;;;6125873;23;20006;-76
2022/03/04 05:46:05;;;;;;;10.27;2.15;;;26.00;99.90;;;;;;6125986;23;20032;-75
2022/03/04 05:48:32;;;;;;;6.55;1.65;;;25.80;99.90;;;;;;6099228;23;20340;-75
2022/03/04 05:51:00;;;;;;;6.00;1.30;;;25.70;99.90;;;;;;6125424;23;20017;-77
2022/03/04 05:53:27;;;;;;;4.25;1.20;;;25.80;99.90;;;;;;6125346;23;20072;-75
2022/03/04 05:55:54;;;;;;;3.30;1.20;;;26.00;99.90;;;;;;6125416;23;20009;-74
2022/03/04 05:58:22;;;;;;;7.80;1.58;;;26.30;99.90;;;;;;6125405;23;20025;-76
2022/03/04 06:00:51;;;;;;;7.20;1.50;;;26.60;99.90;;;;;;6075683;23;20024;-76
2022/03/04 06:03:19;;;;;;;5.20;1.00;;;26.90;99.90;;;;;;6125095;23;20538;-76
2022/03/04 06:05:46;;;;;;;6.10;1.25;;;27.10;99.90;;;;;;6154033;23;20021;-78
2022/03/04 06:08:14;;;;;;;5.72;1.30;;;27.20;99.90;;;;;;6154700;23;20008;-76
2022/03/04 06:10:41;;;;;;;5.80;1.40;;;27.20;99.90;;;;;;6128035;23;20013;-75
2022/03/04 06:13:09;;;;;;;4.75;1.27;;;27.60;99.90;;;;;;6128192;23;20064;-74
2022/03/04 06:15:36;;;;;;;7.43;1.83;;;27.10;99.90;;;;;;6154490;23;20001;-75
2022/03/04 06:18:04;;;;;;;7.28;1.23;;;26.50;99.90;;;;;;6154552;23;20004;-76
2022/03/04 06:20:32;;;;;;;7.53;1.30;;;26.00;99.90;;;;;;6154354;23;20002;-76
2022/03/04 06:22:59;;;;;;;7.25;1.40;;;25.60;99.90;;;;;;6128433;23;20016;-77
2022/03/04 06:25:27;;;;;;;4.15;1.20;;;25.20;99.90;;;;;;6128440;23;20017;-75
2022/03/04 06:27:55;;;;;;;4.63;1.20;;;25.00;99.90;;;;;;6155956;23;20029;-77
2022/03/04 06:30:23;;;;;;;5.00;1.33;;;25.00;99.90;;;;;;6156577;23;20005;-77
2022/03/04 06:33:29;;;;;;;5.25;1.17;;;24.90;99.90;;;;;;6156823;23;20450;-75
2022/03/04 06:35:39;;;;;;;8.55;1.50;;;25.00;99.90;;;;;;6156003;23;20034;-76
2022/03/04 06:38:07;;;;;;;6.95;1.88;;;24.90;99.90;;;;;;6156755;23;20074;-75
2022/03/04 06:40:34;;;;;;;8.50;1.75;;;24.60;99.90;;;;;;6156073;23;20081;-75
2022/03/04 06:43:01;;;;;;;5.07;1.17;;;24.60;99.90;;;;;;6130704;23;20005;-75
2022/03/04 06:45:29;;;;;;;4.20;1.25;;;24.60;99.90;;;;;;6130498;23;20040;-74
2022/03/04 06:47:57;;;;;;;4.80;1.40;;;24.60;99.90;;;;;;6156883;23;20068;-75
2022/03/04 06:50:26;;;;;;;5.32;1.60;;;24.50;99.90;;;;;;6130695;23;20010;-76
2022/03/04 06:52:54;;;;;;;5.40;1.33;;;24.60;99.90;;;;;;6156828;23;20308;-76
2022/03/04 06:55:22;;;;;;;4.95;1.27;;;24.60;99.90;;;;;;6130618;23;20063;-76
2022/03/04 06:57:54;;;;;;;5.78;1.88;;;24.60;99.90;;;;;;6131225;23;20413;-78
2022/03/04 07:00:24;;;;;;;5.30;1.70;;;24.70;99.90;;;;;;6130460;23;20012;-75
2022/03/04 07:02:52;;;;;;;3.47;1.30;;;24.80;99.90;;;;;;6131560;23;20010;-75
2022/03/04 07:05:23;;;;;;;5.90;1.77;;;24.90;99.90;;;;;;6129700;23;20028;-76
2022/03/04 07:07:51;;;;;;;7.53;2.22;;;25.00;99.90;;;;;;6130391;23;20013;-76
2022/03/04 07:10:22;;;;;;;5.40;1.63;;;24.80;99.90;;;;;;6156420;23;20398;-75
2022/03/04 07:12:50;;;;;;;6.13;1.70;;;24.80;99.90;;;;;;6131106;23;20013;-75
2022/03/04 07:15:19;;;;;;;6.63;1.58;;;24.70;99.90;;;;;;6130362;23;20014;-75
2022/03/04 07:17:49;;;;;;;7.57;2.00;;;24.60;99.90;;;;;;6130404;23;20466;-75
2022/03/04 07:20:17;;;;;;;5.55;1.80;;;24.60;99.90;;;;;;6156620;23;20002;-75
2022/03/04 07:22:44;;;;;;;12.38;3.15;;;24.50;99.90;;;;;;6156584;23;20055;-75
2022/03/04 07:25:18;;;;;;;13.40;3.53;;;24.40;99.90;;;;;;6156564;23;20001;-75
2022/03/04 07:27:45;;;;;;;7.18;2.13;;;24.40;99.90;;;;;;6130602;23;20032;-76
2022/03/04 07:30:15;;;;;;;9.93;2.58;;;24.30;99.90;;;;;;6156606;23;20427;-76
2022/03/04 07:32:43;;;;;;;11.60;2.50;;;24.40;99.90;;;;;;6156394;23;20056;-75
2022/03/04 07:35:12;;;;;;;8.55;2.38;;;24.40;99.90;;;;;;6156426;23;19998;-75
2022/03/04 07:37:41;;;;;;;9.90;3.25;;;24.40;99.90;;;;;;6130171;23;20010;-77
2022/03/04 07:40:13;;;;;;;7.03;2.67;;;24.40;99.90;;;;;;6129811;23;20089;-76
2022/03/04 07:42:41;;;;;;;10.25;2.78;;;24.40;99.90;;;;;;6156387;23;20041;-76
2022/03/04 07:45:10;;;;;;;10.90;2.30;;;24.40;99.90;;;;;;6130143;23;20006;-75
2022/03/04 07:47:39;;;;;;;10.93;4.10;;;24.30;99.90;;;;;;6156334;23;20006;-76
2022/03/04 07:50:09;;;;;;;18.25;3.92;;;24.30;99.90;;;;;;6156250;23;20059;-75
2022/03/04 07:52:37;;;;;;;10.50;5.07;;;24.20;99.90;;;;;;6156355;23;20052;-75
2022/03/04 07:55:08;;;;;;;16.90;8.70;;;24.10;99.90;;;;;;6130025;23;20009;-78
2022/03/04 07:57:36;;;;;;;8.32;3.47;;;24.10;99.90;;;;;;6129912;23;20081;-75
2022/03/04 08:00:06;;;;;;;15.27;6.38;;;24.00;99.90;;;;;;6156337;23;20041;-75
2022/03/04 08:02:33;;;;;;;11.70;5.00;;;24.10;99.90;;;;;;6156171;23;20076;-77
2022/03/04 08:05:01;;;;;;;8.30;3.72;;;24.00;99.90;;;;;;6155933;23;20013;-76
2022/03/04 08:07:29;;;;;;;6.93;2.65;;;24.00;99.90;;;;;;6129980;23;20012;-76
2022/03/04 08:09:56;;;;;;;8.73;3.13;;;24.00;99.90;;;;;;6156032;23;20006;-76
2022/03/04 08:12:25;;;;;;;9.57;3.38;;;23.90;99.90;;;;;;6156095;23;20008;-77
2022/03/04 08:14:53;;;;;;;11.40;4.30;;;23.90;99.90;;;;;;6156047;23;20001;-75
2022/03/04 08:17:22;;;;;;;8.73;3.55;;;23.90;99.90;;;;;;6129844;23;20013;-76
2022/03/04 08:19:49;;;;;;;12.13;4.10;;;23.80;99.90;;;;;;6156111;23;20170;-75
2022/03/04 08:22:16;;;;;;;9.88;2.92;;;23.70;99.90;;;;;;6129667;23;20009;-75
2022/03/04 08:24:45;;;;;;;9.80;3.60;;;23.60;99.90;;;;;;6156029;23;20002;-76
2022/03/04 08:27:12;;;;;;;10.80;3.40;;;23.60;99.90;;;;;;6155915;23;20001;-75
2022/03/04 08:29:39;;;;;;;8.15;3.10;;;23.60;99.90;;;;;;6155880;23;20380;-75
2022/03/04 08:32:07;;;;;;;7.78;2.90;;;23.50;99.90;;;;;;6129835;23;20079;-76
2022/03/04 08:34:34;;;;;;;9.00;3.30;;;23.40;99.90;;;;;;6155878;23;20002;-75
2022/03/04 08:37:03;;;;;;;9.02;3.25;;;23.40;99.90;;;;;;6129630;23;20059;-76
2022/03/04 08:39:31;;;;;;;11.13;3.78;;;23.40;99.90;;;;;;6155969;23;19998;-75
2022/03/04 08:41:58;;;;;;;8.75;3.40;;;23.40;99.90;;;;;;6155946;23;20308;-76
2022/03/04 08:44:25;;;;;;;11.98;4.50;;;23.30;99.90;;;;;;6155785;23;20008;-76
2022/03/04 08:46:53;;;;;;;9.90;2.47;;;23.40;99.90;;;;;;6155788;23;20001;-76
2022/03/04 08:49:20;;;;;;;5.78;2.20;;;23.40;99.90;;;;;;6155578;23;20005;-76
2022/03/04 08:51:47;;;;;;;7.40;2.45;;;23.40;99.90;;;;;;6155633;23;19998;-76
2022/03/04 08:54:15;;;;;;;7.65;2.40;;;23.40;99.90;;;;;;6155784;23;20001;-75
2022/03/04 08:56:42;;;;;;;11.95;3.17;;;23.30;99.90;;;;;;6129409;23;20037;-75
2022/03/04 08:59:09;;;;;;;8.43;2.83;;;23.30;99.90;;;;;;6155637;23;20104;-77
2022/03/04 09:01:37;;;;;;;6.38;2.70;;;23.30;99.90;;;;;;6129699;23;20056;-76
2022/03/04 09:04:04;;;;;;;8.57;4.00;;;23.20;99.90;;;;;;6155255;23;20352;-75
2022/03/04 09:06:31;;;;;;;10.25;3.80;;;23.20;99.90;;;;;;6129344;23;20010;-75
2022/03/04 09:08:59;;;;;;;13.23;4.78;;;23.30;99.90;;;;;;6155559;23;20028;-77
2022/03/04 09:11:26;;;;;;;11.48;4.32;;;23.20;99.90;;;;;;6129075;23;20152;-76
2022/03/04 09:13:53;;;;;;;10.38;4.72;;;23.10;99.90;;;;;;6129411;23;20005;-77
2022/03/04 09:16:21;;;;;;;9.85;4.82;;;23.20;99.90;;;;;;6155392;23;20006;-76
2022/03/04 09:18:48;;;;;;;10.18;3.60;;;23.20;99.90;;;;;;6155443;23;19997;-74
2022/03/04 09:21:16;;;;;;;8.45;3.67;;;23.20;99.90;;;;;;6155424;23;20056;-75
2022/03/04 09:23:43;;;;;;;11.10;3.33;;;23.20;99.90;;;;;;6155372;23;20378;-75
2022/03/04 09:26:10;;;;;;;8.05;3.10;;;23.10;99.90;;;;;;6155449;23;20006;-75
2022/03/04 09:28:38;;;;;;;12.25;3.90;;;23.00;99.90;;;;;;6129335;23;20005;-75
2022/03/04 09:31:05;;;;;;;16.73;4.32;;;23.10;99.90;;;;;;6155311;23;20009;-76
2022/03/04 09:33:33;;;;;;;12.32;4.22;;;23.00;99.90;;;;;;6155430;23;20017;-74
2022/03/04 09:36:00;;;;;;;10.27;3.65;;;23.10;99.90;;;;;;6129004;23;20089;-75
2022/03/04 09:38:28;;;;;;;12.60;4.25;;;23.00;99.90;;;;;;6155306;23;20001;-76
2022/03/04 09:40:56;;;;;;;15.75;4.75;;;23.00;99.90;;;;;;6155441;23;20002;-74
2022/03/04 09:43:24;;;;;;;15.73;4.80;;;23.00;99.90;;;;;;6155382;23;20029;-75
2022/03/04 09:45:53;;;;;;;17.88;4.97;;;23.00;99.90;;;;;;6155326;23;20013;-74
2022/03/04 09:48:21;;;;;;;13.00;4.35;;;23.00;99.90;;;;;;6155242;23;20144;-75
2022/03/04 09:50:49;;;;;;;14.45;5.40;;;23.00;99.90;;;;;;6155106;23;20001;-75
2022/03/04 09:53:17;;;;;;;18.63;5.95;;;23.00;99.90;;;;;;6155323;23;19997;-75
2022/03/04 09:55:45;;;;;;;18.58;5.60;;;23.00;99.90;;;;;;6155352;23;20438;-75
2022/03/04 09:58:18;;;;;;;15.05;4.10;;;23.00;99.90;;;;;;6155316;23;20331;-75
2022/03/04 10:00:46;;;;;;;17.17;4.65;;;22.90;99.90;;;;;;6155315;23;20042;-76
2022/03/04 10:03:32;;;;;;;12.75;4.88;;;22.90;99.90;;;;;;6130316;23;20435;-75
2022/03/04 10:06:01;;;;;;;15.20;4.53;;;22.90;99.90;;;;;;6130597;23;20017;-76
2022/03/04 10:08:28;;;;;;;10.82;3.70;;;22.80;99.90;;;;;;6157192;23;20056;-75
2022/03/04 10:10:58;;;;;;;12.95;4.40;;;22.80;99.90;;;;;;6172135;23;20005;-73
2022/03/04 10:13:45;;;;;;;10.38;3.75;;;22.80;99.90;;;;;;6094830;23;20005;-76
2022/03/04 10:16:25;;;;;;;12.20;3.83;;;22.70;99.90;;;;;;6159436;23;20331;-75
2022/03/04 10:19:16;;;;;;;11.17;4.20;;;22.70;99.90;;;;;;6137367;23;20009;-75
2022/03/04 10:21:57;;;;;;;9.90;3.63;;;22.70;99.90;;;;;;6157469;23;19998;-74
2022/03/04 10:24:31;;;;;;;8.90;3.70;;;22.60;99.90;;;;;;6157441;23;20485;-75
2022/03/04 10:27:03;;;;;;;12.85;3.65;;;22.60;99.90;;;;;;6157768;23;20522;-75
2022/03/04 10:29:32;;;;;;;8.68;3.00;;;22.60;99.90;;;;;;6157230;23;20009;-75
2022/03/04 10:32:15;;;;;;;8.93;3.03;;;22.60;99.90;;;;;;6131123;23;20011;-74
2022/03/04 10:34:58;;;;;;;10.73;3.47;;;22.60;99.90;;;;;;6143066;23;20080;-74
2022/03/04 10:37:55;;;;;;;11.32;3.75;;;22.60;99.90;;;;;;6159132;23;20068;-73
2022/03/04 10:40:24;;;;;;;10.48;3.63;;;22.50;99.90;;;;;;6117710;23;20006;-74
2022/03/04 10:43:07;;;;;;;13.38;4.22;;;22.60;99.90;;;;;;6131428;23;20398;-74
2022/03/04 10:45:36;;;;;;;11.57;4.38;;;22.60;99.90;;;;;;6157635;23;20032;-74
2022/03/04 10:48:10;;;;;;;11.65;3.95;;;22.60;99.90;;;;;;6131781;23;20012;-75
2022/03/04 10:50:39;;;;;;;11.60;3.80;;;22.60;99.90;;;;;;6157794;23;20034;-75
2022/03/04 10:53:29;;;;;;;13.57;5.10;;;22.60;99.90;;;;;;6158430;23;20430;-75
2022/03/04 10:56:02;;;;;;;12.05;4.32;;;22.60;99.90;;;;;;6131676;23;20036;-75
2022/03/04 10:58:34;;;;;;;10.45;4.32;;;22.60;99.90;;;;;;6157587;23;20001;-75
2022/03/04 11:01:08;;;;;;;14.95;4.93;;;22.60;99.90;;;;;;6133994;23;20033;-75
2022/03/04 11:03:36;;;;;;;18.15;5.57;;;22.60;99.90;;;;;;6158431;23;20002;-74
2022/03/04 11:06:15;;;;;;;13.88;4.72;;;22.60;99.90;;;;;;6157913;23;20020;-75
2022/03/04 11:08:43;;;;;;;14.45;4.90;;;22.60;99.90;;;;;;6158601;23;20001;-74
2022/03/04 11:11:12;;;;;;;13.15;5.80;;;22.60;99.90;;;;;;6157657;23;20392;-74
2022/03/04 11:13:41;;;;;;;15.35;4.97;;;22.60;99.90;;;;;;6130634;23;20014;-75
2022/03/04 11:16:09;;;;;;;13.02;5.20;;;22.60;99.90;;;;;;6130985;23;20089;-75
2022/03/04 11:18:37;;;;;;;12.38;5.15;;;22.60;99.90;;;;;;6157199;23;19998;-75
2022/03/04 11:21:05;;;;;;;17.02;5.60;;;22.60;99.90;;;;;;6156962;23;20002;-75
2022/03/04 11:23:34;;;;;;;15.15;5.50;;;22.60;99.90;;;;;;6157261;23;20002;-75
2022/03/04 11:26:03;;;;;;;14.33;5.40;;;22.60;99.90;;;;;;6157331;23;20474;-75
2022/03/04 11:28:42;;;;;;;15.68;4.97;;;22.60;99.90;;;;;;6132056;23;20032;-75
2022/03/04 11:31:14;;;;;;;15.20;5.55;;;22.60;99.90;;;;;;6158024;23;20008;-74
2022/03/04 11:33:52;;;;;;;15.38;4.75;;;22.60;99.90;;;;;;6130842;23;20006;-75
2022/03/04 11:36:29;;;;;;;16.05;5.20;;;22.60;99.90;;;;;;6157193;23;20006;-75
2022/03/04 11:39:01;;;;;;;10.95;5.30;;;22.60;99.90;;;;;;6130517;23;20005;-75
2022/03/04 11:41:34;;;;;;;15.10;5.90;;;22.60;99.90;;;;;;6156535;23;20052;-74
2022/03/04 11:44:17;;;;;;;13.20;5.35;;;22.60;99.90;;;;;;6131436;23;20024;-74
2022/03/04 11:46:50;;;;;;;13.60;6.15;;;22.60;99.90;;;;;;6130865;23;20059;-75
2022/03/04 11:49:48;;;;;;;12.77;6.28;;;22.60;99.90;;;;;;6157141;23;20005;-75
2022/03/04 11:52:26;;;;;;;14.38;6.40;;;22.60;99.90;;;;;;6157269;23;20032;-74
2022/03/04 11:55:00;;;;;;;10.07;5.07;;;22.50;99.90;;;;;;6158602;23;20001;-75
2022/03/04 11:57:31;;;;;;;10.10;4.95;;;22.50;99.90;;;;;;6131079;23;20424;-75
2022/03/04 12:00:14;;;;;;;11.02;5.18;;;22.60;99.90;;;;;;6157769;23;20006;-75
2022/03/04 12:02:48;;;;;;;12.48;5.45;;;22.50;99.90;;;;;;6160395;23;20335;-75
2022/03/04 12:05:19;;;;;;;8.48;4.30;;;22.60;99.90;;;;;;6132536;23;20013;-74
2022/03/04 12:07:52;;;;;;;11.57;4.97;;;22.60;99.90;;;;;;6157177;23;20001;-74
2022/03/04 12:10:25;;;;;;;11.13;4.55;;;22.60;99.90;;;;;;6156963;23;20014;-74
2022/03/04 12:13:16;;;;;;;11.50;4.97;;;22.60;99.90;;;;;;6130775;23;20005;-74
2022/03/04 12:15:48;;;;;;;10.98;5.22;;;22.60;99.90;;;;;;6157714;23;20041;-73
2022/03/04 12:18:25;;;;;;;13.20;5.30;;;22.50;99.90;;;;;;6158042;23;20005;-74
2022/03/04 12:21:13;;;;;;;11.38;5.13;;;22.50;99.90;;;;;;6157462;23;20006;-74
2022/03/04 12:23:43;;;;;;;12.10;5.35;;;22.40;99.90;;;;;;6131309;23;20006;-75
2022/03/04 12:26:20;;;;;;;11.02;4.53;;;22.40;99.90;;;;;;6130652;23;20014;-74
2022/03/04 12:29:03;;;;;;;10.07;4.70;;;22.40;99.90;;;;;;6159283;23;20005;-74
2022/03/04 12:31:42;;;;;;;8.98;4.45;;;22.30;99.90;;;;;;6156914;23;20001;-74
2022/03/04 12:34:21;;;;;;;10.40;4.13;;;22.30;99.90;;;;;;6156917;23;20076;-74
2022/03/04 12:36:52;;;;;;;10.93;4.10;;;22.20;99.90;;;;;;6131021;23;20052;-74
2022/03/04 12:39:21;;;;;;;7.57;4.00;;;22.20;99.90;;;;;;6130798;23;20012;-76
2022/03/04 12:41:49;;;;;;;9.70;4.82;;;22.20;99.90;;;;;;6156686;23;20008;-74
2022/03/04 12:44:16;;;;;;;6.55;4.22;;;22.20;99.90;;;;;;6157492;23;19998;-74
2022/03/04 12:46:44;;;;;;;10.50;5.15;;;22.20;99.90;;;;;;6158369;23;19998;-75
2022/03/04 12:49:13;;;;;;;9.85;5.43;;;22.20;99.90;;;;;;6131252;23;20454;-75
2022/03/04 12:51:45;;;;;;;11.15;5.30;;;22.20;99.90;;;;;;6157090;23;20085;-75
2022/03/04 12:54:25;;;;;;;9.32;5.63;;;22.20;99.90;;;;;;6131910;23;20427;-75
2022/03/04 12:56:57;;;;;;;10.20;5.15;;;22.10;99.90;;;;;;6156671;23;20081;-75